메인 페이지
METAR-TAF:

METAR-TAF

공항 :

샌디에이고 국제공항

샌디에이고, 캘리포니아, 미국

위도: 32-44-01N, 경도: 117-10-59W, 고도: 4m

현재 날씨관측

예보는 33분 전, 18:51시(UTC)에 발표되었습니다.
남남서8kt
온도 20°C
습도 68%
기압 1013 hPa
시정: 14.5km
고도 2600ft 상공 구름 보통

METAR: KSAN 191851Z 21008KT 9SM SCT026 20/14 A2990 RMK AO2 SLP124 T02000139 $

시각: 12:24 (19:24 UTC)

예보

예보는 1 시간 45분 전, 17:39시(UTC)에 발표되었습니다.
예보 대상 시간: 19일 18시부터 20일 24시까지 (UTC)
남남서11kt
시정: 10km
고도 2000ft 상공 구름 보통
20일 0100시부터 (UTC)
서남서5kt
시정: 10km
고도 1500ft 상공 구름 보통
20일 0300시부터 (UTC)
여러 방향의 바람 4kt
시정: 10km
고도 1000ft 상공 흐림

TAF: KSAN 191739Z 1918/2024 20011KT P6SM SCT020 FM200100 24005KT P6SM SCT015 FM200300 VRB04KT P6SM OVC010

4,000개 이상의 공항 관측 자료 및 예보 (METAR 및 TAF 보고).

지도상에서 검색 가능한 기상관측소가 노란 점과 빨간 점으로 표시되어 있습니다.

기상관측소 명을 보려면 표시 위로 마우스를 이동하세요.

날씨 관측과 예보를 보려면 클릭하세요.

지도 변경 : 확대하려면 엑스 표시가 있는 녹색 버튼, 축소하려면 빼기 표시가 있는 녹색 버튼, 다음 페이지의 지도를 보려면 녹색 화살표를 클릭하세요.


METAR-TAF: